createdAt,value
2023-04-19T00:02:31.243Z,0
2023-04-19T00:05:31.263Z,-0.1
2023-04-19T00:08:31.166Z,0
2023-04-19T00:11:31.177Z,0
2023-04-19T00:14:31.181Z,-0.1
2023-04-19T00:17:31.200Z,0
2023-04-19T00:20:31.182Z,0
2023-04-19T00:23:31.190Z,0
2023-04-19T00:26:31.194Z,0
2023-04-19T00:29:31.203Z,0
2023-04-19T00:32:31.211Z,0.1
2023-04-19T00:35:31.209Z,0
2023-04-19T00:38:31.216Z,0
2023-04-19T00:41:31.217Z,0
2023-04-19T00:44:31.225Z,0
2023-04-19T00:47:31.272Z,0
2023-04-19T00:50:31.224Z,0
2023-04-19T00:53:31.229Z,0
2023-04-19T00:56:31.233Z,0
2023-04-19T00:59:31.236Z,-0.1
2023-04-19T01:02:31.296Z,0
2023-04-19T01:05:31.242Z,0
2023-04-19T01:08:31.257Z,0
2023-04-19T01:11:31.261Z,0
2023-04-19T01:14:31.259Z,0.1
2023-04-19T01:17:31.291Z,0.1
2023-04-19T01:20:31.271Z,0.1
2023-04-19T01:23:31.272Z,0.1
2023-04-19T01:26:31.273Z,0.1
2023-04-19T01:29:31.285Z,0.1
2023-04-19T01:32:31.299Z,0.1
2023-04-19T01:35:31.289Z,0.2
2023-04-19T01:38:31.297Z,0.2
2023-04-19T01:41:31.302Z,0.2
2023-04-19T01:44:31.315Z,0.2
2023-04-19T01:47:31.332Z,0.1
2023-04-19T01:50:31.312Z,0.1
2023-04-19T01:53:31.317Z,0.1
2023-04-19T01:56:31.319Z,0.2
2023-04-19T01:59:31.322Z,0.2
2023-04-19T02:02:31.399Z,0.2
2023-04-19T02:05:31.333Z,0.2
2023-04-19T02:08:31.325Z,0.2
2023-04-19T02:11:31.331Z,0.2
2023-04-19T02:14:31.334Z,0.2
2023-04-19T02:17:31.351Z,0.2
2023-04-19T02:20:31.344Z,0.2
2023-04-19T02:23:31.329Z,0.2
2023-04-19T02:26:31.345Z,0.2
2023-04-19T02:29:31.344Z,0.2
2023-04-19T02:32:31.357Z,0.2
2023-04-19T02:35:31.380Z,0.2
2023-04-19T02:38:31.374Z,0.1
2023-04-19T02:41:31.377Z,0.1
2023-04-19T02:44:31.390Z,0.1
2023-04-19T02:47:31.411Z,0.1
2023-04-19T02:50:31.400Z,0.1
2023-04-19T02:53:31.411Z,0
2023-04-19T02:56:31.426Z,0
2023-04-19T02:59:31.412Z,0
2023-04-19T03:02:31.473Z,0.1
2023-04-19T03:05:31.435Z,0.1
2023-04-19T03:08:31.427Z,0.1
2023-04-19T03:11:31.438Z,0.1
2023-04-19T03:14:31.444Z,0.1
2023-04-19T03:17:31.464Z,0
2023-04-19T03:20:31.452Z,0
2023-04-19T03:23:31.460Z,0.1
2023-04-19T03:26:31.460Z,0.1
2023-04-19T03:29:31.465Z,0.1
2023-04-19T03:32:31.474Z,0.1
2023-04-19T03:35:31.460Z,0.2
2023-04-19T03:38:31.473Z,0
2023-04-19T03:41:31.475Z,0.1
2023-04-19T03:44:31.476Z,0.1
2023-04-19T03:47:31.486Z,0.1
2023-04-19T03:50:31.483Z,0.1
2023-04-19T03:53:31.474Z,0.1
2023-04-19T03:56:31.484Z,0
2023-04-19T03:59:31.485Z,0.1
2023-04-19T04:02:31.569Z,0.1
2023-04-19T04:05:31.591Z,0.1
2023-04-19T04:08:31.492Z,0.1
2023-04-19T04:11:31.494Z,0
2023-04-19T04:14:31.496Z,0
2023-04-19T04:17:31.528Z,0.1
2023-04-19T04:20:31.509Z,0.1
2023-04-19T04:23:31.514Z,0.1
2023-04-19T04:26:31.524Z,0.1
2023-04-19T04:29:31.548Z,0.2
2023-04-19T04:32:31.562Z,0.2
2023-04-19T04:35:31.569Z,0.2
2023-04-19T04:38:31.565Z,0.3
2023-04-19T04:41:31.627Z,0.3
2023-04-19T04:44:31.577Z,0.4
2023-04-19T04:47:31.634Z,0.4
2023-04-19T04:50:31.585Z,0.5
2023-04-19T04:53:31.586Z,0.5
2023-04-19T04:56:31.606Z,0.5
2023-04-19T04:59:31.596Z,0.5
2023-04-19T05:02:31.630Z,0.6
2023-04-19T05:05:31.598Z,0.6
2023-04-19T05:08:31.604Z,0.6
2023-04-19T05:11:31.612Z,0.7
2023-04-19T05:14:31.614Z,0.7
2023-04-19T05:17:31.682Z,0.7
2023-04-19T05:20:31.635Z,0.7
2023-04-19T05:23:31.639Z,0.7
2023-04-19T05:26:31.637Z,0.8
2023-04-19T05:29:31.640Z,0.8
2023-04-19T05:32:31.666Z,0.8
2023-04-19T05:35:31.666Z,0.8
2023-04-19T05:38:31.648Z,0.9
2023-04-19T05:41:31.665Z,0.9
2023-04-19T05:44:31.672Z,1
2023-04-19T05:47:31.719Z,1.1
2023-04-19T05:50:31.676Z,1.2
2023-04-19T05:53:31.688Z,1.4
2023-04-19T05:56:31.690Z,1.6
2023-04-19T05:59:31.683Z,1.7
2023-04-19T06:02:31.743Z,1.8
2023-04-19T06:05:31.706Z,2.1
2023-04-19T06:08:31.712Z,2.1
2023-04-19T06:11:38.705Z,2.1
2023-04-19T06:14:31.727Z,2.1
2023-04-19T06:17:31.755Z,2.2
2023-04-19T06:20:31.734Z,2.3
2023-04-19T06:23:31.722Z,2.2
2023-04-19T06:26:31.727Z,2.2
2023-04-19T06:29:31.735Z,2.1
2023-04-19T06:32:31.758Z,2.1
2023-04-19T06:35:31.762Z,2.3
2023-04-19T06:38:31.755Z,2.1
2023-04-19T06:41:31.760Z,2.3
2023-04-19T06:44:31.793Z,2.3
2023-04-19T06:47:32.958Z,2.5
2023-04-19T06:50:31.785Z,2.3
2023-04-19T06:53:31.784Z,2.1
2023-04-19T06:56:31.788Z,2.3
2023-04-19T06:59:31.785Z,2.5
2023-04-19T07:02:31.853Z,2.3
2023-04-19T07:05:31.797Z,2.2
2023-04-19T07:08:42.759Z,1.7
2023-04-19T07:11:32.000Z,1.6
2023-04-19T07:14:31.800Z,1.6
2023-04-19T07:17:31.825Z,1.6
2023-04-19T07:20:31.811Z,1.5
2023-04-19T07:23:31.948Z,1.8
2023-04-19T07:26:31.848Z,1.5
2023-04-19T07:29:31.817Z,1.7
2023-04-19T07:32:31.905Z,1.5
2023-04-19T07:35:32.075Z,1.5
2023-04-19T07:38:31.820Z,1.4
2023-04-19T07:41:31.831Z,1.1
2023-04-19T07:44:31.841Z,0.9
2023-04-19T07:47:31.856Z,0.8
2023-04-19T07:50:31.844Z,0.5
2023-04-19T07:53:31.844Z,0.8
2023-04-19T07:56:31.856Z,0.9
2023-04-19T07:59:31.868Z,1.2
2023-04-19T08:02:31.982Z,0.5
2023-04-19T08:05:31.953Z,0.7
2023-04-19T08:08:33.096Z,0.9
2023-04-19T08:11:31.893Z,0.7
2023-04-19T08:14:37.955Z,1.1
2023-04-19T08:17:37.145Z,0.8
2023-04-19T08:20:31.885Z,0.6
2023-04-19T08:23:38.015Z,0.5
2023-04-19T08:26:31.910Z,1.3
2023-04-19T08:29:31.915Z,1.5
2023-04-19T08:32:31.929Z,1.4
2023-04-19T08:35:31.917Z,1.4
2023-04-19T08:38:31.934Z,1.5
2023-04-19T08:41:31.941Z,1.5
2023-04-19T08:44:36.300Z,1.5
2023-04-19T08:47:33.977Z,1.1
2023-04-19T08:50:38.648Z,1.2
2023-04-19T08:53:31.959Z,1.1
2023-04-19T08:56:35.137Z,1.2
2023-04-19T08:59:31.965Z,0.9
2023-04-19T09:02:32.093Z,1.2
2023-04-19T09:05:32.068Z,1.2
2023-04-19T09:08:31.977Z,1.2
2023-04-19T09:11:31.981Z,0.9
2023-04-19T09:14:31.975Z,1.1
2023-04-19T09:17:32.040Z,1.2
2023-04-19T09:20:31.984Z,0.8
2023-04-19T09:23:31.992Z,0.7
2023-04-19T09:26:31.998Z,0.7
2023-04-19T09:29:32.003Z,0.5
2023-04-19T09:32:32.054Z,-0.1
2023-04-19T09:35:32.013Z,-1
2023-04-19T09:38:32.002Z,-1
2023-04-19T09:41:32.009Z,-1.7
2023-04-19T09:44:52.815Z,-2.3
2023-04-19T09:47:32.042Z,-2
2023-04-19T09:50:33.416Z,-2.1
2023-04-19T09:53:32.038Z,-2.3
2023-04-19T09:56:32.040Z,-2.1
2023-04-19T09:59:32.050Z,-2.9
2023-04-19T10:02:32.116Z,-2
2023-04-19T10:05:32.085Z,-1.7
2023-04-19T10:08:32.067Z,-2.7
2023-04-19T10:11:32.077Z,-2.8
2023-04-19T10:14:32.080Z,-1.5
2023-04-19T10:17:32.108Z,-2.1
2023-04-19T10:20:32.089Z,-1.7
2023-04-19T10:23:32.082Z,-2.2
2023-04-19T10:26:32.096Z,-2.8
2023-04-19T10:29:32.101Z,-2.2
2023-04-19T10:32:32.124Z,-2.4
2023-04-19T10:35:32.117Z,-1.8
2023-04-19T10:38:32.121Z,-1.5
2023-04-19T10:41:32.128Z,-1.7
2023-04-19T10:44:32.126Z,-1.1
2023-04-19T10:47:32.134Z,-1.1
2023-04-19T10:50:32.132Z,-1.3
2023-04-19T10:53:32.148Z,-2.2
2023-04-19T10:56:32.143Z,-2.3
2023-04-19T10:59:32.157Z,-1.9
2023-04-19T11:02:32.208Z,-1.5
2023-04-19T11:05:32.155Z,-1.6
2023-04-19T11:08:32.150Z,-1.6
2023-04-19T11:11:32.175Z,-1.8
2023-04-19T11:14:32.168Z,-2.2
2023-04-19T11:17:32.347Z,-2.3
2023-04-19T11:20:32.178Z,-2.2
2023-04-19T11:23:32.179Z,-2.3
2023-04-19T11:26:32.169Z,-2
2023-04-19T11:29:32.177Z,-2
2023-04-19T11:32:32.227Z,-2.3
2023-04-19T11:35:32.183Z,-1.9
2023-04-19T11:38:32.193Z,-1.8
2023-04-19T11:41:32.194Z,-1
2023-04-19T11:44:32.205Z,-1.5
2023-04-19T11:47:32.221Z,-1
2023-04-19T11:50:32.232Z,-0.9
2023-04-19T11:53:32.210Z,-1
2023-04-19T11:56:32.215Z,-1.3
2023-04-19T11:59:32.231Z,-0.6
2023-04-19T12:02:32.281Z,-0.8
2023-04-19T12:05:32.358Z,-1.1
2023-04-19T12:08:32.261Z,-0.8
2023-04-19T12:11:32.238Z,-0.9
2023-04-19T12:14:32.261Z,-0.9
2023-04-19T12:17:32.271Z,-1.1
2023-04-19T12:20:32.255Z,-1.2
2023-04-19T12:23:32.258Z,-0.3
2023-04-19T12:26:32.262Z,-0.3
2023-04-19T12:29:32.315Z,-1.1
2023-04-19T12:32:32.314Z,-0.9
2023-04-19T12:35:32.285Z,-1
2023-04-19T12:38:32.283Z,-1
2023-04-19T12:41:32.280Z,-1.2
2023-04-19T12:44:32.292Z,-0.8
2023-04-19T12:47:32.376Z,-1
2023-04-19T12:50:32.309Z,-0.9
2023-04-19T12:53:32.302Z,-0.9
2023-04-19T12:56:32.310Z,-1.1
2023-04-19T12:59:32.310Z,-0.9
2023-04-19T13:02:32.355Z,-0.6
2023-04-19T13:05:32.319Z,-0.4
2023-04-19T13:08:43.738Z,0
2023-04-19T13:11:32.323Z,0.3
2023-04-19T13:14:32.338Z,-0.3
2023-04-19T13:17:32.348Z,-0.5
2023-04-19T13:20:32.349Z,-0.7
2023-04-19T13:23:32.346Z,-0.8
2023-04-19T13:26:32.364Z,-0.4
2023-04-19T13:29:32.349Z,0.1
2023-04-19T13:32:32.389Z,-0.5
2023-04-19T13:35:32.363Z,-0.4
2023-04-19T13:38:32.385Z,-0.4
2023-04-19T13:41:32.389Z,-0.5
2023-04-19T13:44:32.410Z,-0.9
2023-04-19T13:47:32.449Z,-1
2023-04-19T13:50:32.400Z,-1.2
2023-04-19T13:53:32.407Z,-1.1
2023-04-19T13:56:32.404Z,-1
2023-04-19T13:59:32.415Z,-0.9
2023-04-19T14:02:32.532Z,-0.8
2023-04-19T14:05:32.411Z,-0.5
2023-04-19T14:08:32.424Z,-0.2
2023-04-19T14:11:32.419Z,-0.5
2023-04-19T14:14:32.589Z,-0.1
2023-04-19T14:17:32.469Z,-0.6
2023-04-19T14:20:32.452Z,-1.2
2023-04-19T14:23:32.421Z,-0.8
2023-04-19T14:26:32.431Z,-0.5
2023-04-19T14:29:32.429Z,-0.2
2023-04-19T14:32:32.535Z,-0.8
2023-04-19T14:35:32.466Z,-1.7
2023-04-19T14:38:32.436Z,-1.4
2023-04-19T14:41:32.462Z,-1.4
2023-04-19T14:44:32.454Z,-1.3
2023-04-19T14:47:32.479Z,-1.2
2023-04-19T14:50:32.443Z,-1.5
2023-04-19T14:53:33.990Z,-1.3
2023-04-19T14:56:32.444Z,-1.4
2023-04-19T14:59:32.451Z,-1.1
2023-04-19T15:02:32.513Z,-1
2023-04-19T15:05:32.471Z,-1.5
2023-04-19T15:08:32.452Z,-1.6
2023-04-19T15:11:32.452Z,-1.5
2023-04-19T15:14:32.461Z,-1.6
2023-04-19T15:17:32.471Z,-2
2023-04-19T15:20:32.457Z,-2.2
2023-04-19T15:23:32.462Z,-3
2023-04-19T15:26:32.463Z,-2.4
2023-04-19T15:29:32.465Z,-2.7
2023-04-19T15:32:32.490Z,-3.3
2023-04-19T15:35:32.479Z,-3.1
2023-04-19T15:38:32.472Z,-3.3
2023-04-19T15:41:32.479Z,-3.1
2023-04-19T15:44:32.476Z,-3
2023-04-19T15:47:32.517Z,-2.9
2023-04-19T15:50:32.470Z,-3.2
2023-04-19T15:53:32.480Z,-3.1
2023-04-19T15:56:32.489Z,-2.7
2023-04-19T15:59:32.476Z,-2.9
2023-04-19T16:02:32.594Z,-2.8
2023-04-19T16:05:32.487Z,-2.7
2023-04-19T16:08:32.490Z,-3
2023-04-19T16:11:32.502Z,-3
2023-04-19T16:14:32.497Z,-2.8
2023-04-19T16:17:32.520Z,-2.8
2023-04-19T16:20:32.491Z,-2.8
2023-04-19T16:23:32.496Z,-2.8
2023-04-19T16:26:32.493Z,-2.7
2023-04-19T16:29:32.505Z,-2.9
2023-04-19T16:32:32.697Z,-2.9
2023-04-19T16:35:32.501Z,-3
2023-04-19T16:38:32.506Z,-2.9
2023-04-19T16:41:32.521Z,-3.1
2023-04-19T16:44:32.623Z,-3.3
2023-04-19T16:47:32.526Z,-3.5
2023-04-19T16:50:32.514Z,-3.4
2023-04-19T16:53:32.536Z,-3.5
2023-04-19T16:56:32.521Z,-3.4
2023-04-19T16:59:32.527Z,-3.3
2023-04-19T17:02:32.618Z,-3.5
2023-04-19T17:05:32.529Z,-3.5
2023-04-19T17:08:32.550Z,-3.6
2023-04-19T17:11:32.538Z,-3.4
2023-04-19T17:14:32.546Z,-3.1
2023-04-19T17:17:32.556Z,-3.3
2023-04-19T17:20:32.547Z,-3.5
2023-04-19T17:23:32.551Z,-3.4
2023-04-19T17:26:32.561Z,-3.2
2023-04-19T17:29:32.585Z,-3.2
2023-04-19T17:32:32.589Z,-3.1
2023-04-19T17:35:32.566Z,-3
2023-04-19T17:38:32.563Z,-2.9
2023-04-19T17:41:32.616Z,-2.7
2023-04-19T17:44:32.572Z,-2.6
2023-04-19T17:47:32.615Z,-2.5
2023-04-19T17:50:32.574Z,-2.5
2023-04-19T17:53:32.575Z,-2.3
2023-04-19T17:56:32.583Z,-2.1
2023-04-19T17:59:32.585Z,-2
2023-04-19T18:02:32.733Z,-2
2023-04-19T18:05:32.601Z,-1.9
2023-04-19T18:08:32.610Z,-1.2
2023-04-19T18:11:32.604Z,-1.4
2023-04-19T18:14:32.610Z,-0.9
2023-04-19T18:17:32.638Z,-0.7
2023-04-19T18:20:32.614Z,-0.3
2023-04-19T18:23:32.613Z,0
2023-04-19T18:26:32.626Z,0.4
2023-04-19T18:29:32.616Z,0.7
2023-04-19T18:32:32.751Z,0.9
2023-04-19T18:35:32.624Z,0.8
2023-04-19T18:38:32.618Z,1.5
2023-04-19T18:41:32.634Z,1.5
2023-04-19T18:44:51.880Z,1.7
2023-04-19T18:47:32.689Z,2.2
2023-04-19T18:50:32.660Z,2.1
2023-04-19T18:53:32.655Z,2.5
2023-04-19T18:57:04.961Z,2.7
2023-04-19T18:59:32.650Z,2.8
2023-04-19T19:02:32.733Z,2.8
2023-04-19T19:05:32.780Z,2.8
2023-04-19T19:08:32.719Z,2.9
2023-04-19T19:14:32.681Z,2.8
2023-04-19T19:17:32.702Z,2.9
2023-04-19T19:20:32.693Z,2.7
2023-04-19T19:23:36.114Z,2.8
2023-04-19T19:26:32.704Z,2.7
2023-04-19T19:29:36.192Z,2.8
2023-04-19T19:32:32.749Z,2.7
2023-04-19T19:35:32.768Z,2.9
2023-04-19T19:38:32.726Z,2.7
2023-04-19T19:42:02.992Z,2.8
2023-04-19T19:44:32.734Z,2.8
2023-04-19T19:47:32.834Z,2.8
2023-04-19T19:53:32.732Z,2.7
2023-04-19T19:56:32.754Z,2.7
2023-04-19T19:59:34.615Z,2.7
2023-04-19T20:02:34.099Z,2.6
2023-04-19T20:05:33.112Z,2.6
2023-04-19T20:08:33.040Z,2.5
2023-04-19T20:11:32.782Z,2.4
2023-04-19T20:14:32.784Z,2.4
2023-04-19T20:17:32.813Z,2.3
2023-04-19T20:20:32.842Z,2.1
2023-04-19T20:23:32.793Z,2.1
2023-04-19T20:26:32.813Z,2.1
2023-04-19T20:29:32.802Z,2.1
2023-04-19T20:32:32.819Z,2
2023-04-19T20:35:32.804Z,1.8
2023-04-19T20:38:32.821Z,1.9
2023-04-19T20:41:32.833Z,1.7
2023-04-19T20:44:32.830Z,1.8
2023-04-19T20:47:32.850Z,1.8
2023-04-19T20:50:32.845Z,1.8
2023-04-19T20:53:32.846Z,1.9
2023-04-19T20:56:32.869Z,1.9
2023-04-19T20:59:32.861Z,2
2023-04-19T21:02:32.968Z,2
2023-04-19T21:05:32.881Z,2
2023-04-19T21:08:32.882Z,2.1
2023-04-19T21:11:32.898Z,2
2023-04-19T21:14:32.901Z,2.1
2023-04-19T21:17:32.943Z,2.2
2023-04-19T21:20:32.915Z,2.3
2023-04-19T21:23:32.919Z,2.3
2023-04-19T21:26:32.924Z,2.3
2023-04-19T21:29:32.934Z,2.3
2023-04-19T21:32:32.937Z,2.4
2023-04-19T21:35:32.954Z,2.5
2023-04-19T21:38:32.944Z,2.5
2023-04-19T21:41:32.965Z,2.5
2023-04-19T21:44:32.977Z,2.6
2023-04-19T21:47:33.017Z,2.6
2023-04-19T21:50:32.985Z,2.7
2023-04-19T21:53:33.007Z,2.7
2023-04-19T21:56:33.004Z,2.8
2023-04-19T21:59:33.087Z,2.9
2023-04-19T22:02:33.117Z,3
2023-04-19T22:05:33.038Z,2.9
2023-04-19T22:08:33.202Z,3
2023-04-19T22:11:33.050Z,2.9
2023-04-19T22:14:33.054Z,3.1
2023-04-19T22:17:33.083Z,3.1
2023-04-19T22:20:33.071Z,3
2023-04-19T22:23:33.073Z,3
2023-04-19T22:26:33.092Z,3
2023-04-19T22:29:33.111Z,2.9
2023-04-19T22:32:33.107Z,3
2023-04-19T22:35:33.107Z,3
2023-04-19T22:38:33.121Z,3
2023-04-19T22:41:33.153Z,2.9
2023-04-19T22:44:33.133Z,2.9
2023-04-19T22:47:33.232Z,2.8
2023-04-19T22:50:33.156Z,2.8
2023-04-19T22:53:33.161Z,2.7
2023-04-19T22:56:33.167Z,2.6
2023-04-19T22:59:33.177Z,2.7
2023-04-19T23:02:33.308Z,2.6
2023-04-19T23:05:33.174Z,2.7
2023-04-19T23:08:33.190Z,2.7
2023-04-19T23:11:33.187Z,2.7
2023-04-19T23:14:33.200Z,2.8
2023-04-19T23:17:33.267Z,2.8
2023-04-19T23:20:33.205Z,2.7
2023-04-19T23:23:33.220Z,2.8
2023-04-19T23:26:33.221Z,2.8
2023-04-19T23:29:33.221Z,2.8
2023-04-19T23:32:33.224Z,2.9
2023-04-19T23:35:33.234Z,2.9
2023-04-19T23:38:33.240Z,2.9
2023-04-19T23:41:33.246Z,3
2023-04-19T23:44:33.242Z,3
2023-04-19T23:47:33.296Z,3.1
2023-04-19T23:50:33.259Z,3.1
2023-04-19T23:53:33.260Z,3.1
2023-04-19T23:56:33.267Z,3.2
2023-04-19T23:59:33.304Z,3.2
